createdAt,value
2019-05-05T00:02:10.106Z,5.42
2019-05-05T00:04:49.614Z,5.45
2019-05-05T00:07:25.264Z,5.49
2019-05-05T00:09:54.674Z,5.52
2019-05-05T00:12:57.578Z,5.54
2019-05-05T00:15:49.133Z,5.59
2019-05-05T00:18:18.934Z,5.68
2019-05-05T00:20:47.221Z,5.73
2019-05-05T00:23:15.507Z,5.72
2019-05-05T00:25:44.757Z,5.71
2019-05-05T00:28:14.316Z,5.52
2019-05-05T00:30:44.852Z,5.50
2019-05-05T00:33:14.729Z,5.47
2019-05-05T00:35:45.109Z,5.51
2019-05-05T00:38:15.207Z,5.57
2019-05-05T00:40:44.950Z,5.56
2019-05-05T00:43:14.920Z,5.52
2019-05-05T00:45:46.323Z,5.55
2019-05-05T00:48:25.240Z,5.60
2019-05-05T00:50:55.684Z,5.65
2019-05-05T00:53:25.380Z,5.70
2019-05-05T00:55:55.255Z,5.72
2019-05-05T00:58:25.586Z,5.73
2019-05-05T01:01:06.355Z,5.71
2019-05-05T01:03:36.162Z,5.73
2019-05-05T01:06:15.075Z,5.69
2019-05-05T01:09:04.367Z,5.70
2019-05-05T01:11:38.096Z,5.69
2019-05-05T01:14:07.910Z,5.68
2019-05-05T01:16:38.004Z,5.68
2019-05-05T01:19:07.679Z,5.70
2019-05-05T01:21:37.530Z,5.70
2019-05-05T01:24:07.359Z,5.72
2019-05-05T01:26:37.272Z,5.71
2019-05-05T01:29:08.741Z,5.72
2019-05-05T01:31:38.790Z,5.74
2019-05-05T01:34:17.085Z,5.78
2019-05-05T01:36:49.319Z,5.85
2019-05-05T01:39:25.956Z,5.96
2019-05-05T01:41:58.911Z,5.99
2019-05-05T01:44:28.609Z,6.07
2019-05-05T01:46:58.400Z,6.14
2019-05-05T01:49:28.105Z,6.19
2019-05-05T01:51:57.766Z,6.19
2019-05-05T01:54:27.539Z,6.23
2019-05-05T01:56:57.351Z,6.28
2019-05-05T01:59:27.576Z,6.28
2019-05-05T02:01:57.582Z,6.23
2019-05-05T02:04:27.353Z,6.16
2019-05-05T02:06:57.126Z,6.15
2019-05-05T02:09:26.954Z,6.19
2019-05-05T02:11:56.864Z,6.13
2019-05-05T02:14:26.643Z,6.04
2019-05-05T02:16:56.389Z,5.98
2019-05-05T02:19:26.173Z,5.95
2019-05-05T02:21:56.465Z,5.92
2019-05-05T02:24:26.224Z,5.92
2019-05-05T02:26:56.199Z,5.93
2019-05-05T02:29:50.039Z,5.90
2019-05-05T02:32:29.877Z,5.88
2019-05-05T02:35:06.389Z,5.80
2019-05-05T02:37:35.824Z,5.72
2019-05-05T02:40:08.948Z,5.68
2019-05-05T02:42:40.561Z,5.63
2019-05-05T02:45:15.522Z,5.60
2019-05-05T02:48:05.925Z,5.57
2019-05-05T02:50:59.977Z,5.53
2019-05-05T02:53:24.775Z,5.54
2019-05-05T02:55:53.444Z,5.49
2019-05-05T02:58:24.536Z,5.42
2019-05-05T03:01:11.432Z,5.40
2019-05-05T03:03:43.727Z,5.39
2019-05-05T03:06:14.497Z,5.42
2019-05-05T03:08:46.543Z,5.50
2019-05-05T03:11:17.692Z,5.49
2019-05-05T03:13:50.731Z,5.51
2019-05-05T03:16:23.716Z,5.48
2019-05-05T03:18:55.418Z,5.44
2019-05-05T03:21:27.167Z,5.45
2019-05-05T03:23:57.410Z,5.43
2019-05-05T03:26:27.838Z,5.44
2019-05-05T03:28:59.092Z,5.50
2019-05-05T03:31:29.277Z,5.51
2019-05-05T03:33:59.008Z,5.53
2019-05-05T03:36:30.249Z,5.56
2019-05-05T03:39:00.174Z,5.59
2019-05-05T03:41:39.996Z,5.60
2019-05-05T03:44:24.165Z,5.64
2019-05-05T03:46:55.151Z,5.68
2019-05-05T03:49:25.695Z,5.71
2019-05-05T03:51:56.595Z,5.72
2019-05-05T03:54:27.019Z,5.73
2019-05-05T03:57:09.491Z,5.77
2019-05-05T03:59:41.572Z,5.79
2019-05-05T04:02:17.265Z,5.80
2019-05-05T04:04:49.587Z,5.83
2019-05-05T04:07:20.335Z,5.85
2019-05-05T04:09:50.783Z,5.91
2019-05-05T04:12:20.685Z,5.97
2019-05-05T04:14:51.810Z,6.01
2019-05-05T04:17:31.083Z,6.07
2019-05-05T04:20:03.925Z,6.09
2019-05-05T04:22:34.644Z,6.13
2019-05-05T04:25:05.380Z,6.12
2019-05-05T04:27:35.098Z,6.16
2019-05-05T04:30:05.408Z,6.16
2019-05-05T04:32:35.481Z,6.18
2019-05-05T04:35:07.514Z,6.18
2019-05-05T04:37:37.198Z,6.14
2019-05-05T04:40:07.244Z,6.17
2019-05-05T04:42:36.972Z,6.24
2019-05-05T04:45:07.383Z,6.31
2019-05-05T04:47:39.572Z,6.36
2019-05-05T04:50:19.315Z,6.41
2019-05-05T04:52:49.459Z,6.44
2019-05-05T04:55:19.143Z,6.48
2019-05-05T04:57:48.904Z,6.45
2019-05-05T05:00:18.914Z,6.49
2019-05-05T05:02:59.819Z,6.51
2019-05-05T05:05:34.752Z,6.56
2019-05-05T05:08:05.100Z,6.62
2019-05-05T05:10:34.918Z,6.66
2019-05-05T19:47:06.020Z,9.26
2019-05-05T19:49:34.840Z,9.17
2019-05-05T19:52:05.858Z,9.06
2019-05-05T19:54:36.405Z,9.04
2019-05-05T19:57:06.984Z,8.98
2019-05-05T19:59:35.985Z,8.92
2019-05-05T20:02:04.889Z,8.91
2019-05-05T20:04:33.838Z,8.84
2019-05-05T20:07:04.466Z,8.85
2019-05-05T20:09:34.122Z,8.88
2019-05-05T20:12:04.069Z,8.90
2019-05-05T20:14:34.228Z,8.90
2019-05-05T20:17:04.239Z,8.85
2019-05-05T20:19:34.344Z,8.78
2019-05-05T20:22:04.169Z,8.75
2019-05-05T20:24:33.757Z,8.72
2019-05-05T20:27:04.702Z,8.71
2019-05-05T20:29:37.339Z,8.70
2019-05-05T20:32:06.108Z,8.72
2019-05-05T20:35:04.290Z,8.68
2019-05-05T20:37:45.067Z,8.63
2019-05-05T20:40:16.140Z,8.63
2019-05-05T20:42:46.982Z,8.67
2019-05-05T20:45:20.033Z,8.64
2019-05-05T20:47:50.027Z,8.66
2019-05-05T20:50:19.792Z,8.66
2019-05-05T20:52:50.133Z,8.53
2019-05-05T20:55:20.079Z,8.53
2019-05-05T20:57:49.761Z,8.56
2019-05-05T21:00:19.865Z,8.58
2019-05-05T21:02:49.542Z,8.52
2019-05-05T21:05:19.201Z,8.52
2019-05-05T21:07:48.882Z,8.56
2019-05-05T21:10:19.524Z,8.54
2019-05-05T21:12:49.524Z,8.52
2019-05-05T21:15:19.217Z,8.48
2019-05-05T21:17:49.032Z,8.48
2019-05-05T21:20:18.794Z,8.49
2019-05-05T21:23:09.760Z,8.50
2019-05-05T21:25:41.897Z,8.44
2019-05-05T21:28:11.577Z,8.43
2019-05-05T21:30:41.729Z,8.43
2019-05-05T21:33:11.419Z,8.45
2019-05-05T21:35:41.382Z,8.43
2019-05-05T21:38:11.056Z,8.40
2019-05-05T21:40:43.898Z,8.37
2019-05-05T21:43:15.207Z,8.33
2019-05-05T21:45:44.609Z,8.29
2019-05-05T21:48:14.328Z,8.25
2019-05-05T21:50:49.737Z,8.26
2019-05-05T21:53:25.355Z,8.28
2019-05-05T21:56:24.842Z,8.30
2019-05-05T21:58:55.207Z,8.27
2019-05-05T22:01:27.467Z,8.18
2019-05-05T22:03:57.375Z,8.15
2019-05-05T22:06:27.107Z,8.13
2019-05-05T22:08:57.241Z,8.14
2019-05-05T22:11:27.003Z,8.16
2019-05-05T22:13:56.671Z,8.14
2019-05-05T22:16:26.429Z,8.16
2019-05-05T22:18:56.096Z,8.16
2019-05-05T22:21:36.146Z,8.14
2019-05-05T22:24:22.710Z,8.11
2019-05-05T22:26:54.138Z,8.06
2019-05-05T22:29:25.167Z,8.00
2019-05-05T22:31:54.871Z,7.95
2019-05-05T22:34:24.574Z,7.91
2019-05-05T22:36:54.278Z,7.89
2019-05-05T22:39:24.396Z,7.86
2019-05-05T22:41:54.509Z,7.84
2019-05-05T22:44:24.515Z,7.79
2019-05-05T22:46:54.207Z,7.74
2019-05-05T22:49:24.276Z,7.66
2019-05-05T22:51:55.275Z,7.59
2019-05-05T22:54:25.927Z,7.50
2019-05-05T22:56:55.605Z,7.40
2019-05-05T22:59:26.170Z,7.36
2019-05-05T23:01:56.099Z,7.35
2019-05-05T23:04:54.553Z,7.36
2019-05-05T23:07:34.824Z,7.39
2019-05-05T23:10:04.722Z,7.41
2019-05-05T23:12:35.053Z,7.42
2019-05-05T23:15:06.059Z,7.41
2019-05-05T23:17:54.458Z,7.43
2019-05-05T23:21:09.834Z,7.47
2019-05-05T23:24:04.656Z,7.50
2019-05-05T23:26:36.100Z,7.48
2019-05-05T23:29:05.853Z,7.45
2019-05-05T23:31:35.665Z,7.46
2019-05-05T23:34:05.438Z,7.47
2019-05-05T23:36:34.058Z,7.46
2019-05-05T23:39:04.412Z,7.45
2019-05-05T23:41:34.931Z,7.46
2019-05-05T23:44:03.919Z,7.45
2019-05-05T23:46:34.660Z,7.43
2019-05-05T23:49:04.132Z,7.40
2019-05-05T23:51:34.494Z,7.39
2019-05-05T23:54:04.275Z,7.38
2019-05-05T23:56:34.745Z,7.37
2019-05-05T23:59:04.251Z,7.35
